sensor_id;sensor_type;location;lat;lon;timestamp;pressure;altitude;pressure_sealevel;temperature;humidity
45941;BME280;31858;46.008;8.978;2022-09-09T00:07:46;94230.78;;;18.50;100.00
45941;BME280;31858;46.008;8.978;2022-09-09T00:17:52;94233.91;;;18.48;100.00
45941;BME280;31858;46.008;8.978;2022-09-09T00:27:57;94226.97;;;18.35;100.00
45941;BME280;31858;46.008;8.978;2022-09-09T00:38:03;94202.94;;;18.53;100.00
45941;BME280;31858;46.008;8.978;2022-09-09T00:48:10;94197.75;;;18.46;100.00
45941;BME280;31858;46.008;8.978;2022-09-09T00:58:12;94189.34;;;18.44;100.00
45941;BME280;31858;46.008;8.978;2022-09-09T01:08:29;94178.53;;;18.18;100.00
45941;BME280;31858;46.008;8.978;2022-09-09T01:18:37;94180.56;;;18.14;100.00
45941;BME280;31858;46.008;8.978;2022-09-09T01:28:44;94174.66;;;18.19;100.00
45941;BME280;31858;46.008;8.978;2022-09-09T01:38:48;94192.44;;;18.17;100.00
45941;BME280;31858;46.008;8.978;2022-09-09T01:48:52;94219.19;;;18.24;100.00
45941;BME280;31858;46.008;8.978;2022-09-09T02:09:22;94188.63;;;18.02;100.00
45941;BME280;31858;46.008;8.978;2022-09-09T02:19:28;94171.41;;;17.83;100.00
45941;BME280;31858;46.008;8.978;2022-09-09T02:29:34;94173.41;;;17.95;100.00
45941;BME280;31858;46.008;8.978;2022-09-09T02:39:37;94168.38;;;17.81;100.00
45941;BME280;31858;46.008;8.978;2022-09-09T02:49:51;94145.78;;;17.91;100.00
45941;BME280;31858;46.008;8.978;2022-09-09T02:59:58;94166.69;;;17.42;100.00
45941;BME280;31858;46.008;8.978;2022-09-09T03:10:02;94189.94;;;17.19;100.00
45941;BME280;31858;46.008;8.978;2022-09-09T03:20:04;94170.44;;;16.47;100.00
45941;BME280;31858;46.008;8.978;2022-09-09T03:30:10;94171.22;;;16.27;100.00
45941;BME280;31858;46.008;8.978;2022-09-09T03:40:12;94167.84;;;16.23;100.00
45941;BME280;31858;46.008;8.978;2022-09-09T03:50:15;94199.50;;;16.16;100.00
45941;BME280;31858;46.008;8.978;2022-09-09T04:00:18;94201.97;;;15.87;100.00
45941;BME280;31858;46.008;8.978;2022-09-09T04:10:21;94186.75;;;16.00;100.00
45941;BME280;31858;46.008;8.978;2022-09-09T04:20:23;94177.34;;;16.28;100.00
45941;BME280;31858;46.008;8.978;2022-09-09T04:30:26;94196.59;;;16.26;100.00
45941;BME280;31858;46.008;8.978;2022-09-09T04:40:28;94191.69;;;16.21;100.00
45941;BME280;31858;46.008;8.978;2022-09-09T04:50:32;94185.72;;;16.14;100.00
45941;BME280;31858;46.008;8.978;2022-09-09T05:00:34;94191.09;;;15.94;100.00
45941;BME280;31858;46.008;8.978;2022-09-09T05:10:38;94188.53;;;15.87;100.00
45941;BME280;31858;46.008;8.978;2022-09-09T05:20:42;94208.94;;;16.04;100.00
45941;BME280;31858;46.008;8.978;2022-09-09T05:30:45;94207.88;;;15.78;100.00
45941;BME280;31858;46.008;8.978;2022-09-09T05:40:47;94224.47;;;15.73;100.00
45941;BME280;31858;46.008;8.978;2022-09-09T05:50:53;94250.59;;;15.92;100.00
45941;BME280;31858;46.008;8.978;2022-09-09T06:01:00;94254.50;;;16.11;100.00
45941;BME280;31858;46.008;8.978;2022-09-09T06:11:05;94243.88;;;16.04;100.00
45941;BME280;31858;46.008;8.978;2022-09-09T06:21:11;94262.69;;;16.04;100.00
45941;BME280;31858;46.008;8.978;2022-09-09T06:31:18;94261.91;;;16.04;100.00
45941;BME280;31858;46.008;8.978;2022-09-09T06:41:24;94258.19;;;15.97;100.00
45941;BME280;31858;46.008;8.978;2022-09-09T06:51:29;94261.16;;;16.03;100.00
45941;BME280;31858;46.008;8.978;2022-09-09T07:01:32;94264.06;;;16.12;100.00
45941;BME280;31858;46.008;8.978;2022-09-09T07:11:38;94250.69;;;16.28;100.00
45941;BME280;31858;46.008;8.978;2022-09-09T07:21:40;94248.69;;;16.33;100.00
45941;BME280;31858;46.008;8.978;2022-09-09T07:31:43;94255.59;;;16.53;100.00
45941;BME280;31858;46.008;8.978;2022-09-09T07:41:46;94257.22;;;16.87;100.00
45941;BME280;31858;46.008;8.978;2022-09-09T07:51:49;94252.56;;;16.71;100.00
45941;BME280;31858;46.008;8.978;2022-09-09T08:01:52;94262.63;;;16.67;100.00
45941;BME280;31858;46.008;8.978;2022-09-09T08:11:56;94254.75;;;16.76;100.00
45941;BME280;31858;46.008;8.978;2022-09-09T08:21:58;94262.28;;;16.65;100.00
45941;BME280;31858;46.008;8.978;2022-09-09T08:32:03;94277.44;;;16.75;100.00
45941;BME280;31858;46.008;8.978;2022-09-09T08:42:16;94263.00;;;17.02;100.00
45941;BME280;31858;46.008;8.978;2022-09-09T08:52:23;94268.56;;;17.11;100.00
45941;BME280;31858;46.008;8.978;2022-09-09T09:02:32;94264.38;;;17.10;100.00
45941;BME280;31858;46.008;8.978;2022-09-09T09:12:42;94273.13;;;17.30;100.00
45941;BME280;31858;46.008;8.978;2022-09-09T09:22:48;94279.03;;;17.41;100.00
45941;BME280;31858;46.008;8.978;2022-09-09T09:32:54;94271.72;;;17.74;100.00
45941;BME280;31858;46.008;8.978;2022-09-09T09:42:58;94262.69;;;17.97;100.00
45941;BME280;31858;46.008;8.978;2022-09-09T09:53:03;94262.97;;;18.15;100.00
45941;BME280;31858;46.008;8.978;2022-09-09T10:03:27;94256.88;;;18.40;100.00
45941;BME280;31858;46.008;8.978;2022-09-09T10:13:36;94255.47;;;18.90;100.00
45941;BME280;31858;46.008;8.978;2022-09-09T10:23:52;94251.59;;;19.04;100.00
45941;BME280;31858;46.008;8.978;2022-09-09T10:34:16;94248.78;;;19.20;100.00
45941;BME280;31858;46.008;8.978;2022-09-09T10:44:39;94235.81;;;19.40;100.00
45941;BME280;31858;46.008;8.978;2022-09-09T10:54:55;94244.09;;;19.59;100.00
45941;BME280;31858;46.008;8.978;2022-09-09T11:05:02;94230.69;;;19.68;100.00
45941;BME280;31858;46.008;8.978;2022-09-09T11:15:14;94232.59;;;19.80;100.00
45941;BME280;31858;46.008;8.978;2022-09-09T11:25:21;94226.38;;;19.92;100.00
45941;BME280;31858;46.008;8.978;2022-09-09T11:35:32;94215.88;;;19.94;100.00
45941;BME280;31858;46.008;8.978;2022-09-09T11:45:37;94230.19;;;20.16;100.00
45941;BME280;31858;46.008;8.978;2022-09-09T11:55:40;94228.44;;;20.44;100.00
45941;BME280;31858;46.008;8.978;2022-09-09T12:05:44;94210.56;;;20.47;100.00
45941;BME280;31858;46.008;8.978;2022-09-09T12:15:49;94204.34;;;20.59;100.00
45941;BME280;31858;46.008;8.978;2022-09-09T12:26:05;94198.66;;;20.66;100.00
45941;BME280;31858;46.008;8.978;2022-09-09T12:36:13;94197.59;;;21.04;100.00
45941;BME280;31858;46.008;8.978;2022-09-09T12:46:28;94193.41;;;21.12;100.00
45941;BME280;31858;46.008;8.978;2022-09-09T12:56:34;94179.56;;;21.19;100.00
45941;BME280;31858;46.008;8.978;2022-09-09T13:06:37;94175.72;;;21.29;100.00
45941;BME280;31858;46.008;8.978;2022-09-09T13:16:39;94157.06;;;21.40;100.00
45941;BME280;31858;46.008;8.978;2022-09-09T13:26:41;94168.53;;;21.72;100.00
45941;BME280;31858;46.008;8.978;2022-09-09T13:36:47;94165.81;;;21.99;100.00
45941;BME280;31858;46.008;8.978;2022-09-09T13:47:00;94154.03;;;22.21;100.00
45941;BME280;31858;46.008;8.978;2022-09-09T13:57:04;94142.25;;;22.33;100.00
45941;BME280;31858;46.008;8.978;2022-09-09T14:07:05;94136.22;;;22.38;100.00
45941;BME280;31858;46.008;8.978;2022-09-09T14:17:08;94128.00;;;22.65;100.00
45941;BME280;31858;46.008;8.978;2022-09-09T14:27:10;94130.09;;;22.70;91.25
45941;BME280;31858;46.008;8.978;2022-09-09T14:37:13;94132.03;;;22.79;84.90
45941;BME280;31858;46.008;8.978;2022-09-09T14:47:14;94128.53;;;22.78;89.00
45941;BME280;31858;46.008;8.978;2022-09-09T14:57:17;94132.78;;;22.80;88.69
45941;BME280;31858;46.008;8.978;2022-09-09T15:07:19;94132.03;;;23.12;97.23
45941;BME280;31858;46.008;8.978;2022-09-09T15:17:23;94131.34;;;23.26;100.00
45941;BME280;31858;46.008;8.978;2022-09-09T15:27:27;94129.50;;;23.32;85.05
45941;BME280;31858;46.008;8.978;2022-09-09T15:37:30;94130.59;;;23.26;80.30
45941;BME280;31858;46.008;8.978;2022-09-09T15:47:32;94129.44;;;23.18;78.89
45941;BME280;31858;46.008;8.978;2022-09-09T15:57:36;94108.72;;;23.20;79.03
45941;BME280;31858;46.008;8.978;2022-09-09T16:07:37;94107.34;;;23.01;82.16
45941;BME280;31858;46.008;8.978;2022-09-09T16:17:40;94121.69;;;22.59;92.12
45941;BME280;31858;46.008;8.978;2022-09-09T16:27:42;94117.38;;;22.86;95.12
45941;BME280;31858;46.008;8.978;2022-09-09T16:37:45;94125.00;;;22.96;92.82
45941;BME280;31858;46.008;8.978;2022-09-09T16:47:47;94129.09;;;22.50;93.70
45941;BME280;31858;46.008;8.978;2022-09-09T16:57:50;94133.75;;;22.07;97.59
45941;BME280;31858;46.008;8.978;2022-09-09T17:07:51;94129.66;;;22.11;100.00
45941;BME280;31858;46.008;8.978;2022-09-09T17:17:57;94135.06;;;22.11;100.00
45941;BME280;31858;46.008;8.978;2022-09-09T17:27:59;94128.16;;;21.92;100.00
45941;BME280;31858;46.008;8.978;2022-09-09T17:38:03;94136.47;;;21.79;100.00
45941;BME280;31858;46.008;8.978;2022-09-09T17:48:05;94135.03;;;21.20;100.00
45941;BME280;31858;46.008;8.978;2022-09-09T17:58:08;94143.63;;;20.69;100.00
45941;BME280;31858;46.008;8.978;2022-09-09T18:08:10;94130.78;;;20.30;100.00
45941;BME280;31858;46.008;8.978;2022-09-09T18:18:13;94145.03;;;19.99;100.00
45941;BME280;31858;46.008;8.978;2022-09-09T18:28:16;94155.78;;;19.90;100.00
45941;BME280;31858;46.008;8.978;2022-09-09T18:38:21;94179.22;;;19.71;100.00
45941;BME280;31858;46.008;8.978;2022-09-09T18:48:24;94175.16;;;19.54;100.00
45941;BME280;31858;46.008;8.978;2022-09-09T18:58:27;94192.91;;;19.42;100.00
45941;BME280;31858;46.008;8.978;2022-09-09T19:08:29;94205.69;;;19.29;100.00
45941;BME280;31858;46.008;8.978;2022-09-09T19:18:34;94221.78;;;19.20;100.00
45941;BME280;31858;46.008;8.978;2022-09-09T19:28:36;94229.91;;;19.20;100.00
45941;BME280;31858;46.008;8.978;2022-09-09T19:38:40;94228.59;;;19.12;100.00
45941;BME280;31858;46.008;8.978;2022-09-09T19:48:43;94228.91;;;19.14;100.00
45941;BME280;31858;46.008;8.978;2022-09-09T19:58:46;94240.03;;;19.03;100.00
45941;BME280;31858;46.008;8.978;2022-09-09T20:08:48;94232.59;;;18.95;100.00
45941;BME280;31858;46.008;8.978;2022-09-09T20:18:53;94236.16;;;18.92;100.00
45941;BME280;31858;46.008;8.978;2022-09-09T20:28:56;94235.72;;;18.93;100.00
45941;BME280;31858;46.008;8.978;2022-09-09T20:39:01;94249.81;;;18.59;100.00
45941;BME280;31858;46.008;8.978;2022-09-09T20:49:04;94254.00;;;18.60;100.00
45941;BME280;31858;46.008;8.978;2022-09-09T20:59:11;94250.06;;;18.65;100.00
45941;BME280;31858;46.008;8.978;2022-09-09T21:09:13;94265.34;;;18.55;100.00
45941;BME280;31858;46.008;8.978;2022-09-09T21:19:16;94260.44;;;18.79;100.00
45941;BME280;31858;46.008;8.978;2022-09-09T21:29:17;94272.06;;;18.63;100.00
45941;BME280;31858;46.008;8.978;2022-09-09T21:39:20;94267.81;;;18.49;100.00
45941;BME280;31858;46.008;8.978;2022-09-09T21:49:22;94275.91;;;18.49;100.00
45941;BME280;31858;46.008;8.978;2022-09-09T21:59:26;94281.47;;;18.42;100.00
45941;BME280;31858;46.008;8.978;2022-09-09T22:09:28;94296.09;;;18.29;100.00
45941;BME280;31858;46.008;8.978;2022-09-09T22:19:32;94309.84;;;18.05;100.00
45941;BME280;31858;46.008;8.978;2022-09-09T22:29:34;94291.69;;;17.77;100.00
45941;BME280;31858;46.008;8.978;2022-09-09T22:39:37;94307.06;;;17.60;100.00
45941;BME280;31858;46.008;8.978;2022-09-09T22:49:39;94308.25;;;17.43;100.00
45941;BME280;31858;46.008;8.978;2022-09-09T22:59:42;94311.75;;;17.23;100.00
45941;BME280;31858;46.008;8.978;2022-09-09T23:09:44;94309.63;;;17.15;100.00
45941;BME280;31858;46.008;8.978;2022-09-09T23:19:48;94311.84;;;17.20;100.00
45941;BME280;31858;46.008;8.978;2022-09-09T23:29:52;94315.63;;;17.22;100.00
45941;BME280;31858;46.008;8.978;2022-09-09T23:39:56;94304.56;;;17.01;100.00
45941;BME280;31858;46.008;8.978;2022-09-09T23:49:57;94317.69;;;16.99;100.00
